Time;durP1;ratioP1;P1;durP2;ratioP2;P2;SDS_P1;SDS_P2;PMS_P1;PMS_P2;Temp;Humidity;BMP_temperature;BMP_pressure;BME280_temperature;BME280_humidity;BME280_pressure;Samples;Min_cycle;Max_cycle;Signal;HPM_P1;HPM_P2
2022/03/21 00:00:50;;;;;;;58.08;30.05;;;;;;;1.20;40.55;102618.09;5088857;28;20058;-78
2022/03/21 00:03:21;;;;;;;55.72;27.42;;;;;;;1.21;40.16;102622.47;5087322;28;20071;-80
2022/03/21 00:05:49;;;;;;;50.60;26.90;;;;;;;1.16;40.04;102623.31;5094266;28;20395;-79
2022/03/21 00:08:18;;;;;;;58.15;28.55;;;;;;;1.09;40.35;102619.81;5090873;28;20165;-77
2022/03/21 00:10:47;;;;;;;60.83;29.90;;;;;;;1.08;40.25;102615.44;5083773;28;20047;-77
2022/03/21 00:13:15;;;;;;;54.20;29.23;;;;;;;1.06;40.12;102611.97;5088290;28;20294;-74
2022/03/21 00:15:43;;;;;;;49.13;25.90;;;;;;;1.06;40.15;102611.97;5086161;28;20109;-75
2022/03/21 00:18:13;;;;;;;51.78;28.58;;;;;;;1.05;40.36;102613.72;5084984;28;20160;-76
2022/03/21 00:20:42;;;;;;;56.83;26.02;;;;;;;1.02;40.24;102610.22;5085588;28;20085;-76
2022/03/21 00:23:09;;;;;;;57.22;26.60;;;;;;;1.02;40.16;102615.44;5085649;28;20143;-75
2022/03/21 00:25:36;;;;;;;56.85;28.08;;;;;;;0.99;40.09;102605.88;5083681;28;20044;-75
2022/03/21 00:28:04;;;;;;;62.08;29.63;;;;;;;0.97;40.25;102607.59;5085270;28;20542;-75
2022/03/21 00:30:31;;;;;;;59.53;26.50;;;;;;;0.97;40.49;102604.13;5086667;28;20047;-77
2022/03/21 00:32:59;;;;;;;55.72;24.75;;;;;;;0.92;40.12;102604.13;5086273;28;20052;-78
2022/03/21 00:35:28;;;;;;;46.42;25.77;;;;;;;0.91;40.44;102602.34;5089717;28;20048;-76
2022/03/21 00:37:56;;;;;;;56.78;29.10;;;;;;;0.91;40.45;102600.63;5092001;28;20135;-77
2022/03/21 00:40:24;;;;;;;58.63;27.98;;;;;;;0.91;40.43;102602.34;5093053;28;20553;-77
2022/03/21 00:42:52;;;;;;;57.15;29.38;;;;;;;0.90;40.59;102611.91;5092017;28;20055;-77
2022/03/21 00:45:23;;;;;;;58.72;28.23;;;;;;;0.92;40.37;102606.72;5092395;28;20048;-77
2022/03/21 00:47:50;;;;;;;49.97;25.63;;;;;;;0.89;40.45;102606.69;5096512;28;20101;-77
2022/03/21 00:50:19;;;;;;;45.67;25.10;;;;;;;0.86;40.55;102602.31;5095830;28;20114;-75
2022/03/21 00:52:50;;;;;;;47.55;24.75;;;;;;;0.83;40.39;102602.31;5091498;28;20238;-78
2022/03/21 00:55:18;;;;;;;63.38;27.70;;;;;;;0.81;40.53;102608.38;5090716;28;20119;-77
2022/03/21 00:57:47;;;;;;;44.17;23.60;;;;;;;0.74;40.69;102602.28;5091358;28;20066;-75
2022/03/21 01:00:17;;;;;;;47.17;22.75;;;;;;;0.67;40.53;102603.09;5090821;28;20180;-76
2022/03/21 01:02:45;;;;;;;48.60;25.15;;;;;;;0.59;40.71;102604.75;5087538;28;20135;-77
2022/03/21 01:05:13;;;;;;;48.13;25.85;;;;;;;0.54;40.51;102600.41;5089517;28;20181;-77
2022/03/21 01:07:40;;;;;;;59.63;27.90;;;;;;;0.47;40.78;102596.03;5089550;28;20575;-76
2022/03/21 01:10:13;;;;;;;67.25;26.83;;;;;;;0.45;41.17;102595.16;5089115;28;20044;-76
2022/03/21 01:12:41;;;;;;;61.72;30.23;;;;;;;0.48;41.38;102605.53;5089436;28;20133;-76
2022/03/21 01:15:10;;;;;;;64.57;29.23;;;;;;;0.49;41.55;102604.69;5089807;28;20130;-77
2022/03/21 01:17:38;;;;;;;64.55;29.90;;;;;;;0.49;41.48;102599.50;5090596;28;20067;-79
2022/03/21 01:20:07;;;;;;;67.53;29.20;;;;;;;0.55;41.54;102599.53;5089299;28;20105;-80
2022/03/21 01:22:34;;;;;;;61.08;29.75;;;;;;;0.52;41.73;102596.94;5089793;28;20047;-78
2022/03/21 01:25:02;;;;;;;56.50;27.95;;;;;;;0.49;41.73;102598.63;5089458;28;20048;-78
2022/03/21 01:27:31;;;;;;;49.75;28.20;;;;;;;0.50;41.91;102597.75;5089536;28;20071;-74
2022/03/21 01:29:59;;;;;;;60.67;26.55;;;;;;;0.53;41.86;102600.41;5088040;28;20151;-76
2022/03/21 01:32:26;;;;;;;51.35;23.73;;;;;;;0.52;41.81;102596.03;5087275;28;20505;-76
2022/03/21 01:34:53;;;;;;;53.53;25.13;;;;;;;0.50;41.69;102601.22;5088698;28;20059;-74
2022/03/21 01:37:20;;;;;;;49.38;24.60;;;;;;;0.48;42.07;102605.53;5088934;28;20044;-73
2022/03/21 01:39:47;;;;;;;55.90;24.05;;;;;;;0.48;41.76;102602.94;5089186;28;20147;-74
2022/03/21 01:42:15;;;;;;;54.05;26.23;;;;;;;0.45;41.86;102596.84;5088799;28;20380;-73
2022/03/21 01:44:43;;;;;;;52.97;26.25;;;;;;;0.45;42.00;102596.84;5088833;28;20101;-76
2022/03/21 01:47:10;;;;;;;66.45;27.33;;;;;;;0.41;41.76;102600.31;5095941;28;20058;-75
2022/03/21 01:49:38;;;;;;;55.72;25.60;;;;;;;0.41;41.92;102605.50;5099504;28;20071;-79
2022/03/21 01:52:05;;;;;;;62.60;28.65;;;;;;;0.41;42.01;102600.31;5102350;28;20085;-76
2022/03/21 01:57:17;;;;;;;56.78;25.60;;;;;;;0.38;41.76;102598.56;5104426;28;20101;-77
2022/03/21 01:59:47;;;;;;;54.83;28.55;;;;;;;0.35;42.01;102593.31;5105989;28;20116;-77
2022/03/21 02:02:14;;;;;;;49.90;27.08;;;;;;;0.35;42.37;102598.53;5102917;28;20086;-77
2022/03/21 02:04:42;;;;;;;53.20;25.10;;;;;;;0.30;42.19;102597.63;5108261;28;20051;-77
2022/03/21 02:07:09;;;;;;;58.35;25.35;;;;;;;0.25;42.06;102602.75;5105469;28;20076;-76
2022/03/21 02:09:37;;;;;;;57.03;26.30;;;;;;;0.17;42.14;102594.06;5105502;28;20051;-77
2022/03/21 02:12:05;;;;;;;48.92;28.60;;;;;;;0.18;42.48;102599.28;5093165;28;20051;-77
2022/03/21 02:14:35;;;;;;;46.78;25.25;;;;;;;0.17;42.46;102604.44;5093730;28;20054;-77
2022/03/21 02:17:04;;;;;;;58.83;26.00;;;;;;;0.12;42.25;102594.00;5096316;28;20067;-77
2022/03/21 02:19:33;;;;;;;58.13;24.50;;;;;;;0.10;42.21;102600.91;5103147;28;20458;-74
2022/03/21 02:22:17;;;;;;;45.42;23.05;;;;;;;0.11;42.30;102607.88;5103920;28;20067;-76
2022/03/21 02:24:59;;;;;;;46.13;26.20;;;;;;;0.07;42.20;102600.88;5096460;28;20375;-77
2022/03/21 02:27:29;;;;;;;56.38;27.15;;;;;;;0.04;42.44;102605.19;5091140;28;20130;-75
2022/03/21 02:29:57;;;;;;;55.47;25.35;;;;;;;-0.02;42.20;102606.88;5090622;28;20086;-76
2022/03/21 02:32:25;;;;;;;67.18;29.42;;;;;;;-0.05;42.66;102608.59;5088543;28;20133;-77
2022/03/21 02:34:54;;;;;;;49.88;25.05;;;;;;;-0.11;42.49;102612.00;5088614;28;20054;-76
2022/03/21 02:37:22;;;;;;;50.28;26.10;;;;;;;-0.13;42.78;102611.09;5089433;28;20131;-77
2022/03/21 02:39:50;;;;;;;53.13;26.08;;;;;;;-0.15;42.87;102611.94;5089105;28;20594;-74
2022/03/21 02:42:18;;;;;;;51.03;24.58;;;;;;;-0.22;42.65;102598.91;5088063;28;20676;-76
2022/03/21 02:44:47;;;;;;;62.28;26.98;;;;;;;-0.24;43.03;102605.78;5090021;28;20039;-78
2022/03/21 02:47:14;;;;;;;57.80;27.13;;;;;;;-0.28;42.71;102601.44;5097764;28;20458;-76
2022/03/21 02:49:41;;;;;;;59.47;26.67;;;;;;;-0.31;43.04;102603.97;5094822;28;20107;-75
2022/03/21 02:52:10;;;;;;;62.92;28.00;;;;;;;-0.32;43.11;102597.06;5092857;28;20111;-73
2022/03/21 02:54:37;;;;;;;57.72;26.45;;;;;;;-0.31;43.03;102605.72;5090030;28;20136;-80
2022/03/21 02:57:05;;;;;;;52.90;27.15;;;;;;;-0.34;43.35;102598.78;5072527;28;20057;-81
2022/03/21 02:59:32;;;;;;;55.90;27.17;;;;;;;-0.34;43.28;102598.78;5072217;28;20103;-81
2022/03/21 03:02:02;;;;;;;62.38;26.85;;;;;;;-0.36;43.35;102594.41;5069716;28;20063;-83
2022/03/21 03:04:29;;;;;;;53.85;27.02;;;;;;;-0.33;43.34;102594.44;5071828;28;20056;-80
2022/03/21 03:06:56;;;;;;;47.90;24.63;;;;;;;-0.33;43.50;102594.44;5069865;28;20066;-77
2022/03/21 03:09:23;;;;;;;66.70;28.08;;;;;;;-0.35;43.51;102591.84;5067185;28;20139;-79
2022/03/21 03:11:51;;;;;;;61.40;27.95;;;;;;;-0.32;43.78;102584.09;5066922;28;20060;-78
2022/03/21 03:14:18;;;;;;;60.17;27.98;;;;;;;-0.28;43.77;102577.19;5067999;28;20610;-79
2022/03/21 03:16:45;;;;;;;57.08;28.05;;;;;;;-0.28;44.21;102577.19;5066729;28;20052;-77
2022/03/21 03:19:13;;;;;;;68.88;32.45;;;;;;;-0.28;44.25;102587.59;5067097;28;20411;-76
2022/03/21 03:21:44;;;;;;;57.47;31.90;;;;;;;-0.29;44.38;102581.53;5067328;28;20071;-74
2022/03/21 03:24:12;;;;;;;68.43;34.63;;;;;;;-0.27;44.15;102578.91;5067417;28;20044;-75
2022/03/21 03:26:40;;;;;;;62.28;31.95;;;;;;;-0.27;44.34;102579.81;5067290;28;20060;-76
2022/03/21 03:29:07;;;;;;;62.10;26.95;;;;;;;-0.27;44.18;102591.91;5066752;28;20048;-77
2022/03/21 03:31:35;;;;;;;49.28;25.73;;;;;;;-0.32;44.13;102591.88;5065133;28;20055;-77
2022/03/21 03:34:03;;;;;;;51.83;28.60;;;;;;;-0.40;44.32;102590.91;5067185;28;20052;-74
2022/03/21 03:36:31;;;;;;;62.17;29.02;;;;;;;-0.43;44.06;102596.09;5068214;28;20624;-76
2022/03/21 03:38:59;;;;;;;61.83;26.70;;;;;;;-0.47;44.18;102592.59;5066337;28;20113;-76
2022/03/21 03:41:27;;;;;;;50.83;25.27;;;;;;;-0.47;44.47;102602.97;5067099;28;20366;-76
2022/03/21 03:43:54;;;;;;;55.60;26.25;;;;;;;-0.49;44.46;102590.81;5066313;28;20135;-76
2022/03/21 03:46:22;;;;;;;63.03;26.52;;;;;;;-0.49;44.31;102596.88;5066069;28;20558;-76
2022/03/21 03:48:49;;;;;;;53.53;23.83;;;;;;;-0.51;44.11;102602.91;5065524;28;20110;-77
2022/03/21 03:51:17;;;;;;;50.33;28.75;;;;;;;-0.49;44.41;102609.84;5066339;28;20170;-78
2022/03/21 03:53:46;;;;;;;56.20;26.92;;;;;;;-0.49;44.24;102602.06;5070004;28;20067;-75
2022/03/21 03:56:13;;;;;;;61.95;30.25;;;;;;;-0.48;44.44;102596.03;5066998;28;20048;-76
2022/03/21 03:58:41;;;;;;;56.03;25.92;;;;;;;-0.46;44.47;102598.66;5065729;28;20587;-76
2022/03/21 04:01:09;;;;;;;57.83;26.13;;;;;;;-0.44;44.70;102595.19;5066467;28;20041;-76
2022/03/21 04:03:48;;;;;;;59.58;28.08;;;;;;;-0.40;44.32;102598.69;5064564;28;20048;-78
2022/03/21 04:06:16;;;;;;;57.45;28.17;;;;;;;-0.40;44.66;102586.59;5066120;28;20123;-75
2022/03/21 04:08:47;;;;;;;46.38;25.90;;;;;;;-0.39;44.33;102592.66;5065651;28;20552;-77
2022/03/21 04:11:15;;;;;;;56.10;27.63;;;;;;;-0.38;44.62;102591.78;5065320;28;20048;-76
2022/03/21 04:13:42;;;;;;;51.97;27.30;;;;;;;-0.39;44.68;102592.66;5065275;28;20040;-76
2022/03/21 04:16:10;;;;;;;64.10;27.50;;;;;;;-0.36;44.54;102595.31;5064984;28;20480;-76
2022/03/21 04:18:38;;;;;;;54.13;25.35;;;;;;;-0.42;44.71;102588.28;5065380;28;20139;-76
2022/03/21 04:21:06;;;;;;;51.45;27.60;;;;;;;-0.42;44.88;102590.03;5065883;28;20478;-75
2022/03/21 04:23:33;;;;;;;58.13;27.58;;;;;;;-0.43;45.18;102588.31;5065253;28;20051;-76
2022/03/21 04:26:01;;;;;;;50.08;26.63;;;;;;;-0.43;44.94;102585.72;5063650;28;20074;-74
2022/03/21 04:28:29;;;;;;;63.20;28.45;;;;;;;-0.42;45.13;102585.69;5065653;28;20041;-79
2022/03/21 04:30:56;;;;;;;60.17;28.48;;;;;;;-0.42;45.27;102584.84;5069714;28;20267;-78
2022/03/21 04:33:23;;;;;;;56.88;28.30;;;;;;;-0.43;45.09;102596.09;5076651;28;20120;-77
2022/03/21 04:35:50;;;;;;;56.05;27.20;;;;;;;-0.43;45.15;102593.50;5080148;28;20115;-78
2022/03/21 04:38:17;;;;;;;48.00;26.30;;;;;;;-0.41;45.41;102594.38;5079509;28;20101;-78
2022/03/21 04:40:47;;;;;;;49.30;26.00;;;;;;;-0.39;45.41;102595.25;5080554;28;20048;-79
2022/03/21 04:43:17;;;;;;;51.15;26.30;;;;;;;-0.37;45.49;102595.28;5079529;28;20086;-78
2022/03/21 04:45:47;;;;;;;53.60;26.67;;;;;;;-0.31;45.49;102590.13;5080651;28;20124;-77
2022/03/21 04:48:15;;;;;;;64.25;28.98;;;;;;;-0.28;45.23;102598.81;5073410;28;20630;-79
2022/03/21 04:50:43;;;;;;;58.65;29.15;;;;;;;-0.28;45.35;102588.44;5069938;28;20055;-79
2022/03/21 04:53:10;;;;;;;61.13;28.90;;;;;;;-0.18;45.29;102585.94;5075493;28;20112;-80
2022/03/21 04:55:38;;;;;;;71.28;34.05;;;;;;;-0.08;45.60;102593.81;5075055;28;20055;-77
2022/03/21 04:58:05;;;;;;;56.20;31.58;;;;;;;0.03;45.45;102593.94;5066049;28;20575;-77
2022/03/21 05:00:34;;;;;;;63.00;31.50;;;;;;;0.19;45.31;102592.34;5065750;28;20743;-75
2022/03/21 05:03:04;;;;;;;62.40;29.48;;;;;;;0.31;45.11;102584.63;5062572;28;20053;-75
2022/03/21 05:05:31;;;;;;;67.53;31.85;;;;;;;0.49;45.38;102596.91;5065280;28;20152;-80
2022/03/21 05:07:59;;;;;;;66.75;33.92;;;;;;;0.63;45.05;102594.41;5067413;28;20103;-82
2022/03/21 05:10:27;;;;;;;60.17;29.98;;;;;;;0.68;44.77;102590.06;5086613;28;20062;-84
2022/03/21 05:12:54;;;;;;;64.38;30.52;;;;;;;0.70;45.06;102595.28;5090919;28;20048;-80
2022/03/21 05:15:21;;;;;;;59.85;28.73;;;;;;;0.70;44.88;102597.88;5086986;28;20139;-77
2022/03/21 05:17:52;;;;;;;58.83;28.02;;;;;;;0.69;45.05;102594.44;5089531;28;20601;-81
2022/03/21 05:20:19;;;;;;;61.35;29.67;;;;;;;0.69;45.34;102596.16;5090193;28;20055;-77
2022/03/21 05:30:57;;;;;;;55.28;26.73;;;;;;;0.69;45.03;102596.16;5088502;28;20518;-79
2022/03/21 05:31:06;;;;;;;46.35;25.20;;;;;;;0.76;45.18;102598.81;5098979;28;20054;-79
2022/03/21 05:36:22;;;;;;;57.17;28.92;;;;;;;0.86;44.95;102599.72;5096041;28;20066;-77
2022/03/21 05:38:50;;;;;;;52.97;28.58;;;;;;;0.93;45.12;102601.50;5098533;28;20044;-79
2022/03/21 05:41:17;;;;;;;59.17;30.15;;;;;;;1.01;45.18;102603.25;5060755;28;20112;-76
2022/03/21 05:43:44;;;;;;;55.53;28.38;;;;;;;1.07;45.33;102598.09;5089272;28;20044;-76
2022/03/21 05:46:14;;;;;;;43.95;26.10;;;;;;;1.13;45.19;102608.53;5092146;28;20693;-78
2022/03/21 05:48:54;;;;;;;48.72;24.65;;;;;;;1.24;45.31;102617.28;5096294;28;20420;-75
2022/03/21 05:51:27;;;;;;;54.40;27.25;;;;;;;1.31;44.94;102605.13;5089128;28;20127;-79
2022/03/21 05:53:55;;;;;;;47.47;24.90;;;;;;;1.40;45.01;102612.13;5088355;28;20187;-79
2022/03/21 05:56:25;;;;;;;51.97;24.83;;;;;;;1.48;45.10;102616.50;5091451;28;20134;-76
2022/03/21 05:58:52;;;;;;;44.45;24.95;;;;;;;1.57;44.83;102620.88;5089635;28;20056;-74
2022/03/21 06:01:22;;;;;;;55.03;25.15;;;;;;;1.64;44.86;102620.03;5089329;28;20048;-77
2022/03/21 06:03:52;;;;;;;48.75;23.85;;;;;;;1.75;44.88;102627.88;5085750;28;20051;-80
2022/03/21 06:06:19;;;;;;;50.28;24.10;;;;;;;1.87;44.80;102627.91;5095268;28;20332;-78
2022/03/21 06:08:46;;;;;;;48.70;23.73;;;;;;;1.97;44.42;102623.56;5102604;28;20080;-81
2022/03/21 06:11:15;;;;;;;36.65;21.80;;;;;;;2.05;44.62;102619.22;5101683;28;20044;-78
2022/03/21 06:13:44;;;;;;;58.15;27.50;;;;;;;2.23;44.72;102620.09;5094684;28;20108;-76
2022/03/21 06:16:15;;;;;;;56.42;28.90;;;;;;;2.37;44.35;102622.72;5096255;28;20056;-81
2022/03/21 06:18:43;;;;;;;59.47;29.75;;;;;;;2.52;44.34;102625.31;5094688;28;20055;-77
2022/03/21 06:21:14;;;;;;;57.35;31.23;;;;;;;2.67;44.28;102622.69;5091035;28;20506;-80
2022/03/21 06:23:41;;;;;;;62.05;31.55;;;;;;;2.85;44.04;102629.59;5090932;28;20098;-76
2022/03/21 06:26:08;;;;;;;56.80;29.58;;;;;;;3.03;43.84;102622.59;5086304;28;20586;-76
2022/03/21 06:28:36;;;;;;;57.67;30.67;;;;;;;3.23;43.90;102625.16;5087703;28;20044;-77
2022/03/21 06:31:04;;;;;;;49.55;27.95;;;;;;;3.41;43.69;102626.81;5089843;28;20135;-74
2022/03/21 06:33:32;;;;;;;47.70;24.02;;;;;;;3.63;43.51;102625.81;5083839;28;20050;-75
2022/03/21 06:36:02;;;;;;;44.88;22.88;;;;;;;3.87;43.50;102631.81;5066471;28;20048;-74
2022/03/21 06:38:32;;;;;;;38.85;22.50;;;;;;;4.07;43.30;102626.44;5085425;28;20134;-74
2022/03/21 06:40:59;;;;;;;43.65;24.13;;;;;;;4.28;43.08;102625.38;5085212;28;20048;-75
2022/03/21 06:43:27;;;;;;;40.78;19.73;;;;;;;4.51;42.81;102621.72;5090478;28;20048;-77
2022/03/21 06:45:55;;;;;;;35.13;17.85;;;;;;;4.76;42.51;102631.06;5103957;28;20290;-74
2022/03/21 06:48:24;;;;;;;32.17;17.35;;;;;;;5.05;42.01;102632.50;5096367;28;20122;-75
2022/03/21 06:50:53;;;;;;;31.63;15.68;;;;;;;5.31;41.71;102628.69;5085714;28;20093;-76
2022/03/21 06:53:21;;;;;;;31.13;14.75;;;;;;;5.52;41.53;102631.03;5086302;28;20051;-74
2022/03/21 06:55:50;;;;;;;27.67;15.32;;;;;;;5.74;41.27;102636.00;5088904;28;20056;-83
2022/03/21 06:58:17;;;;;;;30.48;17.13;;;;;;;5.90;41.20;102632.25;5092335;28;20060;-74
2022/03/21 07:00:46;;;;;;;36.58;18.10;;;;;;;6.06;40.94;102629.47;5086113;28;20154;-74
2022/03/21 07:03:15;;;;;;;40.83;21.67;;;;;;;6.27;40.67;102630.88;5083473;28;20056;-75
2022/03/21 07:05:42;;;;;;;39.30;20.08;;;;;;;6.49;40.31;102628.75;5087433;28;20044;-74
2022/03/21 07:08:09;;;;;;;25.65;15.55;;;;;;;6.67;39.94;102627.56;5085591;28;20132;-72
2022/03/21 07:10:40;;;;;;;27.60;13.85;;;;;;;6.86;39.59;102626.34;5083500;28;20058;-71
2022/03/21 07:13:09;;;;;;;28.45;17.23;;;;;;;7.06;39.29;102628.56;5083230;28;20094;-73
2022/03/21 07:15:37;;;;;;;27.55;14.90;;;;;;;7.30;38.85;102625.50;5084144;28;20131;-71
2022/03/21 07:18:04;;;;;;;31.88;14.52;;;;;;;7.51;38.46;102632.91;5083829;28;20048;-70
2022/03/21 07:20:31;;;;;;;27.35;15.43;;;;;;;7.68;38.14;102631.69;5084771;28;20044;-74
2022/03/21 07:23:00;;;;;;;27.33;14.00;;;;;;;7.88;37.85;102633.88;5084176;28;20048;-70
2022/03/21 07:25:27;;;;;;;28.48;14.60;;;;;;;8.08;37.45;102636.03;5083134;28;20054;-70
2022/03/21 07:27:54;;;;;;;27.25;15.40;;;;;;;8.21;36.54;102634.81;5083121;28;20105;-72
2022/03/21 07:30:23;;;;;;;24.85;13.15;;;;;;;8.39;36.66;102633.50;5083731;28;20044;-73
2022/03/21 07:32:50;;;;;;;29.45;15.90;;;;;;;8.53;36.36;102628.78;5083140;28;20131;-73
2022/03/21 07:35:17;;;;;;;25.33;13.60;;;;;;;8.70;36.05;102635.41;5085713;28;20340;-73
2022/03/21 07:37:45;;;;;;;22.65;13.95;;;;;;;8.90;35.86;102642.75;5084014;28;20122;-76
2022/03/21 07:40:13;;;;;;;27.80;13.93;;;;;;;9.08;35.59;102636.97;5083787;28;20704;-72
2022/03/21 07:42:41;;;;;;;23.67;13.38;;;;;;;9.21;34.96;102637.50;5083545;28;20485;-71
2022/03/21 07:47:56;;;;;;;27.67;17.50;;;;;;;9.57;34.35;102637.31;5090001;28;20171;-70
2022/03/21 07:50:24;;;;;;;22.42;13.57;;;;;;;9.70;34.19;102641.31;5086820;28;20062;-76
2022/03/21 07:52:52;;;;;;;22.63;11.95;;;;;;;9.88;33.95;102645.16;5082517;28;20163;-71
2022/03/21 07:55:19;;;;;;;23.15;13.55;;;;;;;10.06;33.71;102637.56;5083123;28;20052;-70
2022/03/21 07:57:46;;;;;;;20.45;11.90;;;;;;;10.23;33.30;102634.41;5046159;28;20504;-72
2022/03/21 08:00:15;;;;;;;17.25;10.60;;;;;;;10.41;32.89;102631.16;5082076;28;20119;-73
2022/03/21 08:02:43;;;;;;;18.70;10.77;;;;;;;10.54;32.86;102625.47;5082689;28;20048;-73
2022/03/21 08:05:13;;;;;;;18.02;10.25;;;;;;;10.67;32.57;102619.69;5082314;28;20129;-71
2022/03/21 08:07:41;;;;;;;19.38;11.52;;;;;;;10.80;31.91;102620.09;5082806;28;20119;-71
2022/03/21 08:10:09;;;;;;;20.60;12.90;;;;;;;10.90;31.72;102620.66;5082458;28;20071;-72
2022/03/21 08:12:36;;;;;;;21.55;12.60;;;;;;;11.05;31.71;102624.53;5081637;28;20083;-74
2022/03/21 08:15:04;;;;;;;22.10;14.60;;;;;;;11.18;31.07;102612.59;5083278;28;20040;-72
2022/03/21 08:17:31;;;;;;;24.80;13.85;;;;;;;11.32;30.63;102612.03;5084239;28;20052;-72
2022/03/21 08:19:58;;;;;;;21.13;12.48;;;;;;;11.48;30.66;102620.28;5080214;28;20411;-72
2022/03/21 08:22:29;;;;;;;24.95;14.23;;;;;;;11.73;30.37;102616.69;5073971;28;20131;-72
2022/03/21 08:24:57;;;;;;;20.85;12.25;;;;;;;11.94;30.06;102614.97;5068445;28;20053;-74
2022/03/21 08:27:23;;;;;;;22.10;13.00;;;;;;;12.10;29.95;102616.09;5070222;28;20048;-70
2022/03/21 08:29:50;;;;;;;15.05;10.73;;;;;;;12.32;29.65;102612.56;5069258;28;20040;-72
2022/03/21 08:32:17;;;;;;;21.58;12.57;;;;;;;12.41;29.22;102615.66;5070134;28;20036;-72
2022/03/21 08:34:44;;;;;;;21.48;11.73;;;;;;;12.63;29.02;102610.28;5069200;28;20048;-75
2022/03/21 08:37:11;;;;;;;21.83;12.00;;;;;;;12.85;28.57;102609.34;5070318;28;20137;-72
2022/03/21 08:39:40;;;;;;;20.48;13.30;;;;;;;12.97;28.37;102607.94;5071999;28;20090;-71
2022/03/21 08:42:07;;;;;;;21.77;11.50;;;;;;;13.13;28.23;102603.66;5070090;28;20108;-75
2022/03/21 08:44:34;;;;;;;17.77;11.90;;;;;;;13.34;27.76;102607.16;5075001;28;20094;-72
2022/03/21 08:47:01;;;;;;;20.58;11.55;;;;;;;13.56;27.59;102603.50;5076145;28;20143;-75
2022/03/21 08:49:33;;;;;;;18.95;11.85;;;;;;;14.03;27.14;102600.31;5074026;28;20070;-73
2022/03/21 08:52:03;;;;;;;20.63;11.90;;;;;;;14.41;26.61;102599.34;5068077;28;20049;-72
2022/03/21 08:54:30;;;;;;;23.27;12.60;;;;;;;14.78;26.46;102589.44;5068384;28;20048;-71
2022/03/21 08:56:58;;;;;;;21.33;14.15;;;;;;;15.02;25.70;102590.81;5071715;28;20040;-69
2022/03/21 08:59:25;;;;;;;17.08;10.95;;;;;;;15.09;25.74;102592.19;5073858;28;20082;-73
2022/03/21 09:01:53;;;;;;;21.52;11.27;;;;;;;15.23;25.25;102587.91;5074876;28;20043;-74
2022/03/21 09:04:20;;;;;;;20.80;10.85;;;;;;;15.20;25.08;102588.09;5081079;28;20099;-74
2022/03/21 09:06:47;;;;;;;18.90;11.77;;;;;;;15.26;25.23;102587.75;5075049;28;20116;-76
2022/03/21 09:09:15;;;;;;;18.13;11.18;;;;;;;15.53;24.81;102589.81;5080116;28;20058;-75
2022/03/21 09:11:42;;;;;;;20.42;12.13;;;;;;;15.58;24.50;102587.75;5074719;28;20524;-73
2022/03/21 09:14:11;;;;;;;19.77;12.25;;;;;;;15.42;24.60;102582.44;5074454;28;20112;-75
2022/03/21 09:16:39;;;;;;;16.63;9.80;;;;;;;15.36;24.32;102585.41;5072545;28;20037;-74
2022/03/21 09:19:06;;;;;;;19.02;11.00;;;;;;;15.52;23.86;102580.97;5076304;28;20045;-71
2022/03/21 09:21:33;;;;;;;16.42;10.63;;;;;;;15.47;23.71;102575.91;5072950;28;20504;-74
2022/03/21 09:24:00;;;;;;;16.67;10.15;;;;;;;15.56;23.63;102579.00;5075168;28;20046;-72
2022/03/21 09:26:27;;;;;;;15.70;10.05;;;;;;;15.78;23.61;102573.34;5074633;28;20044;-73
2022/03/21 09:28:59;;;;;;;16.55;9.68;;;;;;;16.01;23.25;102569.34;5074203;28;20047;-78
2022/03/21 09:31:28;;;;;;;13.82;9.30;;;;;;;16.00;22.97;102576.44;5070047;28;20074;-73
2022/03/21 09:33:55;;;;;;;16.83;10.77;;;;;;;16.02;22.92;102568.38;5074790;28;20699;-73
2022/03/21 09:36:22;;;;;;;16.33;9.93;;;;;;;16.00;22.89;102567.59;5073503;28;20408;-72
2022/03/21 09:38:50;;;;;;;18.02;10.05;;;;;;;15.95;22.73;102570.53;5075689;28;20056;-75
2022/03/21 09:41:22;;;;;;;18.80;11.15;;;;;;;16.12;22.54;102566.88;5076198;28;20522;-74
2022/03/21 09:43:51;;;;;;;10.55;6.90;;;;;;;15.98;22.10;102566.84;5072908;28;20044;-73
2022/03/21 09:46:18;;;;;;;13.30;8.85;;;;;;;15.92;22.12;102569.84;5071969;28;20369;-74
2022/03/21 09:48:49;;;;;;;20.13;9.27;;;;;;;16.14;22.13;102562.31;5073623;28;20043;-73
2022/03/21 09:51:21;;;;;;;13.15;7.95;;;;;;;16.33;22.14;102558.56;5070109;28;20257;-72
2022/03/21 09:53:49;;;;;;;11.68;8.23;;;;;;;16.44;21.36;102566.78;5065746;28;20041;-73
2022/03/21 09:56:16;;;;;;;16.20;7.75;;;;;;;16.22;21.18;102556.53;5064841;28;20140;-76
2022/03/21 09:58:44;;;;;;;13.90;8.30;;;;;;;16.18;21.01;102565.66;5064979;28;20051;-74
2022/03/21 10:01:12;;;;;;;12.73;8.07;;;;;;;16.19;21.21;102557.59;5065208;28;20656;-76
2022/03/21 10:03:39;;;;;;;16.45;11.43;;;;;;;16.43;21.21;102560.56;5061407;28;20057;-72
2022/03/21 10:06:29;;;;;;;14.48;7.80;;;;;;;16.65;20.83;102550.41;5063691;28;20071;-74
2022/03/21 10:09:08;;;;;;;10.63;7.65;;;;;;;16.77;21.02;102552.31;5063665;28;20054;-74
2022/03/21 10:11:35;;;;;;;13.85;8.00;;;;;;;16.82;20.44;102543.06;5064321;28;20075;-74
2022/03/21 10:14:32;;;;;;;14.77;8.18;;;;;;;16.75;20.54;102546.22;5062466;28;20112;-73
2022/03/21 10:17:01;;;;;;;14.95;8.63;;;;;;;16.63;20.31;102543.34;5063645;28;20102;-73
2022/03/21 10:19:41;;;;;;;11.23;7.43;;;;;;;16.40;20.35;102538.56;5063817;28;20128;-73
2022/03/21 10:22:13;;;;;;;15.02;9.30;;;;;;;16.25;20.39;102541.19;5063082;28;20072;-73
2022/03/21 10:24:41;;;;;;;14.48;8.70;;;;;;;16.26;20.35;102531.41;5063106;28;20044;-73
2022/03/21 10:27:27;;;;;;;14.63;8.80;;;;;;;16.43;20.42;102528.56;5063239;28;20755;-72
2022/03/21 10:29:59;;;;;;;;;;;;;;;16.79;20.46;102529.06;5063770;28;20055;-72
2022/03/21 10:32:34;;;;;;;12.80;8.40;;;;;;;16.53;20.33;102523.53;5062702;28;19936;-73
2022/03/21 10:35:02;;;;;;;11.57;7.70;;;;;;;16.53;20.25;102522.66;5062151;28;20489;-73
2022/03/21 10:37:46;;;;;;;13.85;8.48;;;;;;;16.53;20.14;102520.88;5063876;28;20059;-73
2022/03/21 10:40:22;;;;;;;14.55;8.25;;;;;;;16.59;19.93;102522.31;5063191;28;20127;-73
2022/03/21 10:42:55;;;;;;;12.35;7.85;;;;;;;16.77;19.79;102520.28;5062803;28;20151;-73
2022/03/21 10:45:23;;;;;;;14.00;8.20;;;;;;;16.82;19.75;102512.88;5063157;28;20040;-72
2022/03/21 10:47:51;;;;;;;16.77;8.32;;;;;;;16.74;19.68;102515.13;5064272;28;20045;-74
2022/03/21 10:50:28;;;;;;;14.55;8.90;;;;;;;16.70;19.75;102505.63;5065105;28;20442;-74
2022/03/21 10:53:09;;;;;;;12.50;8.48;;;;;;;16.85;19.93;102509.16;5063815;28;20332;-73
2022/03/21 10:55:37;;;;;;;15.80;9.07;;;;;;;17.04;19.69;102506.19;5063305;28;20045;-74
2022/03/21 10:58:06;;;;;;;14.48;8.18;;;;;;;17.05;19.60;102502.56;5063701;28;20055;-74
2022/03/21 11:00:34;;;;;;;14.25;8.38;;;;;;;17.20;19.60;102490.91;5064680;28;20049;-74
2022/03/21 11:03:05;;;;;;;15.57;8.95;;;;;;;17.38;19.42;102492.34;5062158;28;20053;-75
2022/03/21 11:05:35;;;;;;;13.20;8.98;;;;;;;17.19;19.43;102494.50;5064314;28;20051;-72
2022/03/21 11:08:05;;;;;;;14.10;8.77;;;;;;;17.13;19.42;102484.22;5063346;28;20048;-75
2022/03/21 11:10:32;;;;;;;14.23;9.57;;;;;;;17.23;19.26;102474.66;5064241;28;20044;-73
2022/03/21 11:13:02;;;;;;;14.50;8.75;;;;;;;17.25;19.34;102478.09;5068187;28;20144;-74
2022/03/21 11:15:31;;;;;;;15.05;8.75;;;;;;;17.28;19.37;102472.53;5066609;28;20048;-74
2022/03/21 11:17:58;;;;;;;14.65;9.20;;;;;;;17.27;19.13;102477.97;5065451;28;20120;-75
2022/03/21 11:20:28;;;;;;;16.73;9.68;;;;;;;17.03;19.22;102472.44;5067068;28;20136;-75
2022/03/21 11:22:56;;;;;;;13.02;8.68;;;;;;;16.87;19.60;102477.88;5066772;28;20048;-72
2022/03/21 11:25:29;;;;;;;14.10;9.00;;;;;;;16.85;19.64;102477.97;5065461;28;20086;-71
2022/03/21 11:28:27;;;;;;;16.08;9.27;;;;;;;16.90;19.79;102465.19;5062735;28;20243;-72
2022/03/21 11:31:09;;;;;;;15.90;10.38;;;;;;;16.94;19.57;102468.53;5061705;28;20048;-72
2022/03/21 11:33:41;;;;;;;15.43;8.30;;;;;;;16.97;19.38;102463.84;5061367;28;20048;-73
2022/03/21 11:36:10;;;;;;;13.95;9.38;;;;;;;17.10;19.25;102447.88;5065481;28;20045;-72